Date,TemperatureHighF,TemperatureAvgF,TemperatureLowF,DewpointHighF,DewpointAvgF,DewpointLowF,HumidityHigh,HumidityAvg,HumidityLow,PressureMaxIn,PressureMinIn,WindSpeedMaxMPH,WindSpeedAvgMPH,GustSpeedMaxMPH,PrecipitationSumIn
2013-4-1,35.8,28.2,20.3,17.7,12.8,9.9,68,53,35,30.15,29.93,18,6,18,0.00
2013-4-2,39.6,28.6,17.8,16.9,13.1,7.3,78,54,29,30.30,30.15,19,4,19,0.00
2013-4-3,48.9,31.6,14.7,19.0,13.8,5.3,84,53,21,30.42,30.19,10,2,10,0.00
2013-4-4,55.0,42.7,29.5,35.4,25.7,18.2,72,51,39,30.19,29.94,27,4,27,0.00
2013-4-5,49.5,37.0,24.1,30.8,22.8,16.4,91,59,29,30.22,30.06,12,3,12,0.00
2013-4-6,56.5,48.8,31.1,49.5,40.9,26.8,95,76,50,30.07,29.48,15,5,15,0.04
2013-4-7,51.8,42.9,35.4,38.2,34.5,31.9,89,73,56,29.94,29.60,17,5,17,0.00
2013-4-8,51.8,48.8,37.9,39.6,36.9,36.6,96,65,56,30.00,29.70,10,3,10,0.02
2013-4-9,40.5,37.6,34.3,39.2,36.5,30.9,100,96,86,30.05,29.90,19,7,19,0.91
2013-4-10,35.6,34.0,31.3,33.7,31.6,-10.5,98,91,15,30.10,29.92,124,6,124,0.69
2013-4-11,39.2,33.8,32.2,38.4,32.3,27.3,99,94,74,29.93,29.61,26,3,26,0.34
2013-4-12,36.3,32.9,31.1,33.7,31.8,30.3,100,96,90,29.76,29.55,10,0,10,0.12
2013-4-13,38.7,33.2,29.3,30.8,27.6,25.6,96,80,63,29.98,29.75,12,2,12,0.01
2013-4-14,39.7,34.1,31.1,36.9,30.5,25.6,96,86,77,29.98,29.59,18,2,18,0.30
2013-4-15,53.4,41.1,31.8,37.9,34.3,27.4,100,80,41,29.96,29.57,24,4,24,0.20
2013-4-16,51.1,37.9,28.2,32.3,29.1,25.3,91,72,45,30.29,29.95,12,2,12,0.00
2013-4-17,41.4,35.7,29.3,37.6,31.7,25.7,99,85,70,30.31,29.88,14,1,14,0.41
2013-4-18,42.4,39.5,37.0,42.4,39.4,36.5,100,100,98,29.83,29.28,16,2,16,0.28
2013-4-19,37.6,33.3,28.6,36.8,27.9,19.9,99,81,55,29.91,29.28,32,6,32,0.04
2013-4-20,45.7,33.1,20.3,22.9,16.8,7.6,88,56,23,30.33,29.91,13,2,13,0.00
2013-4-21,52.2,39.1,31.3,39.1,30.7,17.2,95,73,54,30.42,30.15,10,0,10,0.09
2013-4-22,50.4,46.4,43.3,49.0,43.5,38.7,100,90,69,30.18,29.94,10,0,10,0.14
2013-4-23,49.1,38.9,29.8,49.1,34.4,25.4,100,84,69,30.01,29.88,20,2,20,0.04
2013-4-24,54.5,40.0,26.4,36.6,26.3,20.4,93,62,33,30.03,29.92,23,3,23,0.00
2013-4-25,52.0,41.5,32.2,36.9,32.2,26.5,94,72,41,30.22,29.93,14,3,14,0.02
2013-4-26,44.4,39.3,32.9,31.1,29.7,28.1,86,69,55,30.21,30.14,1,0,1,0.00
2013-4-27,71.8,58.1,43.2,50.7,46.1,40.2,93,67,42,30.16,29.99,10,1,10,0.00
2013-4-28,76.8,58.2,38.8,48.4,43.1,37.7,97,61,30,29.99,29.74,6,0,6,0.00
2013-4-29,74.7,60.4,50.2,58.1,51.8,43.4,93,74,51,29.82,29.65,12,0,12,0.00
2013-4-30,81.9,68.5,58.8,62.0,57.3,54.6,90,70,40,29.66,29.60,21,4,21,0.06